SKBOSKAR

Guest
Details From SKBO - Bogota - El Dorado Intl
To SKAR - EL EDEN
Flight Number -
Tags generated
Created
Modified
Stats Distance 98 nm / 182 km
Max Altitude 1,100 ft / 335 m
Waypoints 3
Social Downloads 10
Likes 0
Share VATSIM

Download

Looking for another format? Having issues loading an existing format? Contact us
Advertisement - Login to hide

Notes

Basic altitude profile: - Ascent Rate: 2500ft/min - Ascent Speed: 250kts - Cruise Altitude: 35000ft - Cruise Speed: 420kts - Descent Rate: 1500ft/min - Descent Speed: 250kts Options: - Use NATs: yes - Use PACOTS: yes - Use low airways: yes - Use high airways: yes

Route

SKBO LOBUL SKAR

ID Type Via Altitude Latitude Longitude Leg Dist Tot Dist Heading (true) Name
O SKBO APT - 0 ft / 0 m 4.70159˚ -74.14695˚ - 0 nm - Bogota - El Dorado Intl
LOBUL FIX - 1,100 ft / 335 m 4.68889˚ -74.20000˚ 3 nm 3 nm 256° / 256° -
O SKAR APT - 0 ft / 0 m 4.45278˚ -75.76649˚ 94 nm 98 nm 261° / 261° EL EDEN

Altitude Profile

Advertisement - Login to hide

SKBO

Details ICAO SKBO (BOG)
Name Bogota - El Dorado Intl
Region Colombia
Timezone America/Bogota (UTC-5.0)
Stats Elevation 8,361 ft / 2,548 m (AMSL)
Location 4.701594° -74.146946°
Runways 2
Magnetic Variation 7.268° W

METAR

SKBO 180500Z 04004KT 9999 NSC 10/07 A3032

Decode

TAF

Not found

Departure Runways

ID Width Length Bearing (true) Bearing (mag) Surface Threshold Offset Overrun Length
13L 148 ft / 45 m 12,482 ft / 3,804 m 127.21° 134.48° Asphalt 0 ft / 0 m 0 ft / 0 m
13R 148 ft / 45 m 12,494 ft / 3,808 m 127.23° 134.50° Asphalt 0 ft / 0 m 200 ft / 61 m
31L 148 ft / 45 m 12,494 ft / 3,808 m 307.23° 314.50° Asphalt 0 ft / 0 m 190 ft / 58 m
31R 148 ft / 45 m 12,482 ft / 3,804 m 307.21° 314.48° Asphalt 0 ft / 0 m 0 ft / 0 m

SKAR

Details ICAO SKAR (AXM)
Name EL EDEN
Region Colombia
Timezone America/Bogota (UTC-5.0)
Stats Elevation 3,990 ft / 1,216 m (AMSL)
Location 4.452775° -75.766487°
Runways 1
Magnetic Variation 6.143° W

METAR

SKAR 180500Z 04003KT 9999 SCT020 20/19 A3000

Decode

TAF

Not found

Destination Runways

ID Width Length Bearing (true) Bearing (mag) Surface Threshold Offset Overrun Length
02 118 ft / 36 m 7,031 ft / 2,143 m 13.15° 19.29° Asphalt 0 ft / 0 m 0 ft / 0 m
20 118 ft / 36 m 7,031 ft / 2,143 m 193.15° 199.29° Asphalt 0 ft / 0 m 0 ft / 0 m

Popular Alternatives